| Date | Time | Temp. (oF) | Dew Point (oF) | Rel. Hum. (%) | Press. (in.) | Wind Dir. | Wind Speed (mph) | Hourly Rainfall (in.) |
|
|---|---|---|---|---|---|---|---|---|---|
| 1 | 02/11 | 00:00 | 46 | 45 | 99 | 29.75 | SSW | 2 | 0.00 |
| 2 | 02/10 | 23:00 | 48 | 46 | 94 | 29.78 | NW | 6 | 0.01 |
| 3 | 02/10 | 22:00 | 53 | 50 | 91 | 29.79 | SSW | 9 | 0.00 |
| 4 | 02/10 | 21:00 | 53 | 51 | 96 | 29.79 | SW | 10 | 0.01 |
| 5 | 02/10 | 20:00 | 53 | 52 | 98 | 29.82 | S | 12 | 0.00 |
| 6 | 02/10 | 19:00 | 52 | 51 | 98 | 29.86 | S | 9 | 0.00 |
| 7 | 02/10 | 18:00 | 51 | 50 | 97 | 29.93 | SSW | 6 | 0.00 |
| 8 | 02/10 | 17:00 | 52 | 51 | 98 | 29.98 | S | 7 | 0.01 |
| 9 | 02/10 | 16:00 | 52 | 50 | 96 | 30.04 | S | 8 | 0.00 |
| 10 | 02/10 | 15:00 | 51 | 49 | 95 | 30.08 | S | 4 | 0.00 |
| 11 | 02/10 | 14:00 | 51 | 47 | 89 | 30.14 | S | 8 | 0.00 |
| 12 | 02/10 | 13:00 | 51 | 47 | 87 | 30.20 | S | 7 | 0.00 |
| 13 | 02/10 | 12:00 | 49 | 45 | 88 | 30.27 | SSE | 2 | 0.00 |
| 14 | 02/10 | 11:00 | 47 | 43 | 89 | 30.33 | SE | 4 | 0.00 |
| 15 | 02/10 | 10:00 | 43 | 40 | 90 | 30.37 | E | 4 | 0.00 |
| 16 | 02/10 | 09:00 | 41 | 39 | 93 | 30.41 | ESE | 6 | 0.00 |
| 17 | 02/10 | 08:00 | 39 | 37 | 93 | 30.44 | SSE | 2 | 0.00 |
| 18 | 02/10 | 07:00 | 38 | 35 | 92 | 30.43 | SSE | 2 | 0.00 |
| 19 | 02/10 | 06:00 | 39 | 36 | 91 | 30.44 | SE | 5 | 0.00 |
| 20 | 02/10 | 05:00 | 37 | 35 | 93 | 30.45 | ESE | 2 | 0.00 |
| 21 | 02/10 | 04:00 | 36 | 33 | 92 | 30.47 | SE | 1 | 0.00 |
| 22 | 02/10 | 03:00 | 36 | 34 | 93 | 30.49 | S | 1 | 0.00 |
| 23 | 02/10 | 02:00 | 35 | 33 | 93 | 30.50 | ESE | 8 | 0.00 |
| 24 | 02/10 | 01:00 | 33 | 30 | 92 | 30.52 | E | 3 | 0.00 |